Página principal
METAR-TAF:

METAR-TAF

Aeroportos :

Argel, Argélia

Aeroporto Internacional Houari Boumedienne

latitude: 36-43N, longitude: 003-15E, altura: 25 m

Observação actual do tempo

O boletim foi feito há 38 minutos, às 14:30 UTC
Vento 7 kt de oes-sudoeste
Temperatura 17°C
Humidade 39%
Pressão 1027 hPa
Visibilidade 10 km ou mais
Poucas nuvensa uma altura de 2000 ft

METAR: DAAG 161430Z 24007KT 9999 FEW020 17/03 Q1027

Hora: 16:08 (15:08 UTC)

Previsão

O boletim foi feito há 4 horas e 8 minutos, às 11:00 UTC
Previsão válida de 16 às 12 UTC a 17 às 12 UTC
Vento 10 kt de oeste
Visibilidade 10 km ou mais
Poucas nuvensa uma altura de 2000 ft
Tornando-se
de 16 às 18 UTC a 16 às 21 UTC
Vento 2 kt com direcção variável
Probabilidade 30% :
Temporariamente
de 17 às 00 UTC a 17 às 06 UTC
Visibilidade: 3000 m
neblina

TAF: DAAG 161100Z 1612/1712 26010KT 9999 FEW020 BECMG 1618/1621 VRB02KT PROB30 TEMPO 1700/1706 3000 BR

Observações e previsões do tempo de mais de 4000 aeroportos (mensagens METAR e TAF).

As estações disponíveis são os pontos amarelos e vermelhos sobre o mapa.

Mova o rato sobre o mapa para ver o nome da estação.

Depois clique no ponto para visualizar as observações e previsões meteorológicas.

Para alterar o mapa : clique nos botões verdes com uma cruz preta para aumentar o zoom; no botão verde com uma pitada de zoom; ou nas setas verdes para mapas adjacentes.


METAR-TAF: